LXGBDAUA

Guest
Details From LXGB - LXGB Gibraltar
To DAUA - TOUAT CHEIKH SIDI MOHAMED BELKEBIR
Flight Number -
Tags decoded
Created
Modified
Stats Distance 587 nm / 1,088 km
Max Altitude 0 ft / 0 m
Waypoints 5
Social Downloads 2
Likes 0
Share VATSIM

Download

Looking for another format? Having issues loading an existing format? Contact us
Advertisement - Login to hide

Notes

Requested: LXGB TTN FES ERA DAUA

Route

LXGB TTN FES ERA DAUA

ID Type Via Altitude Latitude Longitude Leg Dist Tot Dist Heading (true) Name
O LXGB APT - 0 ft / 0 m 36.15121˚ -5.34966˚ - 0 nm - LXGB Gibraltar
TTN VOR - 0 ft / 0 m 35.59500˚ -5.32472˚ 33 nm 33 nm 178° / 178° TETOUAN VOR-DME
FES VOR - 0 ft / 0 m 33.92750˚ -5.01361˚ 101 nm 134 nm 171° / 171° SAISS VOR-DME
ERA VOR - 0 ft / 0 m 31.92417˚ -4.36056˚ 124 nm 259 nm 165° / 165° ERRACHIDIA VOR-DME
O DAUA APT - 0 ft / 0 m 27.83764˚ -0.18639˚ 327 nm 587 nm 137° / 139° TOUAT CHEIKH SIDI MOHAMED BELKEBIR

Altitude Profile

Advertisement - Login to hide

Weather


0- 5 10 15 20 25 30 35+ Temperature / ° C

Clouds and Precipitation
Forecast for 2017-12-17 06:00 UTC. Updated an hour ago

Ground ~20,000 ft ~40,000 ft Winds

LXGB

Details ICAO LXGB (GIB)
Name Gibraltar
Region Gibralter
Timezone Europe/Gibraltar (UTC+1.0)
Stats Elevation 15 ft / 5 m (AMSL)
Location 36.151209° -5.349664°
Runways 1
Magnetic Variation 1.122° W

METAR

LXGB 170550Z 03003KT CAVOK 11/05 Q1025

Decode

TAF

Not found

Departure Runways

ID Width Length Bearing (true) Bearing (mag) Surface Threshold Offset Overrun Length
27 151 ft / 46 m 5,992 ft / 1,826 m 267.56° 268.68° Asphalt 367 ft / 112 m 89 ft / 27 m
9 151 ft / 46 m 5,992 ft / 1,826 m 87.54° 88.66° Asphalt 299 ft / 91 m 52 ft / 16 m

DAUA

Details ICAO DAUA (AZR)
Name TOUAT CHEIKH SIDI MOHAMED BELKEBIR
Region Algeria
Timezone Africa/Algiers (UTC+1.0)
Stats Elevation 919 ft / 280 m (AMSL)
Location 27.837639° -0.186389°
Runways 1
Magnetic Variation 0.086° W

METAR

DAUA 170600Z 12010KT CAVOK 07/01 Q1018

Decode

TAF

TAF DAUA 170500Z 1706/1806 VRB02KT CAVOK PROB30 TEMPO 1706/1709 3000 BR BECMG 1708/1711 04010KT PROB30 TEMPO 1718/1724 04015G25KT 5000 DRSA

Decode

Destination Runways

ID Width Length Bearing (true) Bearing (mag) Surface Threshold Offset Overrun Length
04 148 ft / 45 m 9,857 ft / 3,005 m 39.53° 39.62° Asphalt 0 ft / 0 m 0 ft / 0 m
22 148 ft / 45 m 9,857 ft / 3,005 m 219.54° 219.63° Asphalt 0 ft / 0 m 0 ft / 0 m